Meteo Giornale » Osservazioni meteo Italia » Aosta

ore: 12:50 - Osservazioni Meteo Aosta
Lat. 45° 44' N Lon. 7° 22' E Alt. 546 metri s.l.m.

poco_nuvoloso Europe/Rome

17 °C

Poco Nuvoloso

Temp. 24 Ore

12 °C

19 °C

Nord

5.5 Km/h

Dew point 4 °C

Umidità 41 %

Visibilità  10 Km

Il sole sorge alle ore 07:21

Il sole tramonta alle ore 19:21

Data e Ora Cielo e Fenomeni T °C DP °C Um. % Pres. hPa Vis. km Vento km/h
Oggi h: 12:50 poco_nuvoloso Poco Nuvoloso 17 4 41 1038 10 N 5.5
Oggi h: 12:20 coperto Coperto 16 4 44 1038 10 E/SE 9.3
Oggi h: 11:50 coperto Coperto 15 4 47 1038 10 E 14.8
Oggi h: 11:20 coperto Coperto 14 4 50 1038 10 E 14.8
Oggi h: 10:50 coperto Coperto 14 4 50 1038 10 E 13
Oggi h: 10:20 coperto Coperto 14 4 50 1038 10 E 7.4
Oggi h: 09:50 coperto Coperto 14 4 50 1038 10 E 7.4
Oggi h: 09:20 coperto Coperto 13 5 58 1038 10 N 0
Oggi h: 08:50 coperto Coperto 13 5 58 1038 10 N 0
Oggi h: 08:20 molto_nuvoloso Molto Nuvoloso 15 3 44 1037 10 N 5.5
Oggi h: 07:50 coperto Coperto 12 7 71 1037 10 N 3.7
Oggi h: 07:20 coperto Coperto 12 7 71 1037 10 N 1.8
Ieri h: 19:50 sereno Sereno 15 6 54 1032 10 E 13
Ieri h: 19:20 sereno Sereno 15 6 54 1031 10 E 18.5
Ieri h: 18:50 sereno Sereno 16 6 51 1030 10 E 27.8
Ieri h: 18:20 sereno Sereno 17 6 48 1030 10 E 29.6
Ieri h: 17:50 sereno Sereno 17 6 48 1029 10 E 31.5
Ieri h: 17:20 sereno Sereno 18 6 45 1029 10 E 33.3
Ieri h: 16:50 sereno Sereno 18 6 45 1029 10 E 33.3
Ieri h: 16:20 sereno Sereno 18 6 45 1029 10 E 35.2
Ieri h: 15:50 sereno Sereno 18 6 45 1029 10 E 33.3
Ieri h: 14:50 sereno Sereno 18 6 45 1029 10 E 35.2
Ieri h: 14:20 sereno Sereno 19 6 42 1030 10 E 31.5
Ieri h: 13:50 sereno Sereno 18 7 48 1030 10 E 29.6